Time;durP1;ratioP1;P1;durP2;ratioP2;P2;SDS_P1;SDS_P2;PMS_P1;PMS_P2;Temp;Humidity;BMP_temperature;BMP_pressure;BME280_temperature;BME280_humidity;BME280_pressure;Samples;Min_cycle;Max_cycle;Signal;HPM_P1;HPM_P2
2023/02/09 00:00:18;;;;;;;12.50;11.20;;;-0.80;99.90;;;;;;5035880;28;20299;-74
2023/02/09 00:02:45;;;;;;;12.60;11.30;;;-0.80;99.90;;;;;;5034681;28;20752;-74
2023/02/09 00:05:13;;;;;;;12.85;11.55;;;-0.80;99.90;;;;;;5028749;28;20302;-73
2023/02/09 00:07:41;;;;;;;12.90;11.60;;;-0.80;99.90;;;;;;5033880;28;20298;-74
2023/02/09 00:10:08;;;;;;;16.90;11.85;;;-0.80;99.90;;;;;;5031707;28;20302;-75
2023/02/09 00:15:21;;;;;;;11.73;10.45;;;-0.80;99.90;;;;;;5032863;28;20229;-74
2023/02/09 00:17:48;;;;;;;13.40;12.00;;;-0.80;99.90;;;;;;5028756;28;20219;-74
2023/02/09 00:20:17;;;;;;;12.45;11.15;;;-0.90;99.90;;;;;;5031077;28;20301;-74
2023/02/09 00:22:44;;;;;;;13.20;11.25;;;-0.80;99.90;;;;;;5030550;28;20235;-75
2023/02/09 00:25:11;;;;;;;13.80;12.27;;;-0.80;99.90;;;;;;5032289;28;20313;-74
2023/02/09 00:27:38;;;;;;;12.68;11.38;;;-0.80;99.90;;;;;;5026778;28;20785;-74
2023/02/09 00:30:06;;;;;;;11.43;10.32;;;-0.90;99.90;;;;;;5037625;28;20711;-74
2023/02/09 00:32:33;;;;;;;12.43;11.13;;;-0.90;99.90;;;;;;5033510;28;20762;-74
2023/02/09 00:35:00;;;;;;;12.15;10.05;;;-0.90;99.90;;;;;;5029501;28;20298;-75
2023/02/09 00:37:29;;;;;;;12.02;10.82;;;-0.90;99.90;;;;;;5027731;28;20259;-75
2023/02/09 00:39:56;;;;;;;11.80;10.60;;;-0.80;99.90;;;;;;5031920;28;20223;-75
2023/02/09 00:42:23;;;;;;;12.25;10.85;;;-0.80;99.90;;;;;;5038589;28;20650;-75
2023/02/09 00:44:50;;;;;;;12.95;11.40;;;-0.90;99.90;;;;;;5032213;28;20307;-75
2023/02/09 00:47:17;;;;;;;14.13;12.65;;;-1.00;99.90;;;;;;5030726;28;20228;-74
2023/02/09 00:49:44;;;;;;;12.23;11.02;;;-1.10;99.90;;;;;;5033629;28;20307;-74
2023/02/09 00:52:11;;;;;;;11.60;10.40;;;-1.10;99.90;;;;;;5031573;28;20283;-74
2023/02/09 00:54:39;;;;;;;11.68;10.57;;;-1.10;99.90;;;;;;5030821;28;20320;-74
2023/02/09 00:57:07;;;;;;;11.68;10.40;;;-1.10;99.90;;;;;;5031843;28;20202;-75
2023/02/09 00:59:35;;;;;;;10.60;9.60;;;-1.00;99.90;;;;;;5030626;28;20594;-74
2023/02/09 01:02:02;;;;;;;11.38;10.25;;;-1.10;99.90;;;;;;5031264;28;20246;-74
2023/02/09 01:04:29;;;;;;;10.63;9.63;;;-1.10;99.90;;;;;;5035005;28;20755;-74
2023/02/09 01:06:57;;;;;;;11.13;10.02;;;-1.10;99.90;;;;;;5034712;28;20291;-76
2023/02/09 01:09:24;;;;;;;10.27;9.35;;;-1.10;99.90;;;;;;5028687;28;20290;-75
2023/02/09 01:11:53;;;;;;;11.65;10.50;;;-1.10;99.90;;;;;;5026473;28;20203;-73
2023/02/09 01:14:20;;;;;;;11.68;10.23;;;-1.00;99.90;;;;;;5035614;28;20626;-73
2023/02/09 01:16:47;;;;;;;12.45;10.50;;;-1.00;99.90;;;;;;5035944;28;20235;-73
2023/02/09 01:19:14;;;;;;;10.18;9.15;;;-1.10;99.90;;;;;;5033460;28;20282;-75
2023/02/09 01:21:42;;;;;;;10.30;9.25;;;-1.10;99.90;;;;;;5039948;28;20727;-74
2023/02/09 01:24:13;;;;;;;11.13;10.02;;;-1.10;99.90;;;;;;5024979;28;20302;-74
2023/02/09 01:26:41;;;;;;;10.18;9.10;;;-1.20;99.90;;;;;;5023871;28;20553;-74
2023/02/09 01:29:12;;;;;;;11.35;10.25;;;-1.10;99.90;;;;;;5033768;28;20310;-74
2023/02/09 01:31:40;;;;;;;10.27;9.10;;;-1.10;99.90;;;;;;5029052;28;20759;-75
2023/02/09 01:34:07;;;;;;;10.13;9.15;;;-1.10;99.90;;;;;;5033096;28;20207;-74
2023/02/09 01:36:35;;;;;;;9.40;8.50;;;-1.10;99.90;;;;;;5031944;28;20300;-74
2023/02/09 01:39:03;;;;;;;10.55;9.52;;;-1.10;99.90;;;;;;5034872;28;20198;-74
2023/02/09 01:41:31;;;;;;;10.90;9.80;;;-1.00;99.90;;;;;;5031349;28;20310;-73
2023/02/09 01:44:00;;;;;;;10.45;9.43;;;-1.10;99.90;;;;;;5035605;28;20624;-74
2023/02/09 01:46:30;;;;;;;10.25;9.23;;;-1.00;99.90;;;;;;5031438;28;20287;-73
2023/02/09 01:49:03;;;;;;;10.88;9.77;;;-1.00;99.90;;;;;;5030584;28;20301;-74
2023/02/09 01:51:32;;;;;;;9.82;8.93;;;-1.00;99.90;;;;;;5030866;28;20299;-73
2023/02/09 01:54:00;;;;;;;10.10;9.20;;;-1.00;99.90;;;;;;5034054;28;20290;-73
2023/02/09 01:56:31;;;;;;;9.85;8.88;;;-1.00;99.90;;;;;;5032819;28;20246;-72
2023/02/09 01:58:59;;;;;;;10.20;9.18;;;-0.90;99.90;;;;;;5028790;28;20600;-73
2023/02/09 02:01:28;;;;;;;9.27;8.40;;;-0.90;99.90;;;;;;5027384;28;20222;-73
2023/02/09 02:03:55;;;;;;;9.13;8.20;;;-0.90;99.90;;;;;;5032712;28;20278;-73
2023/02/09 02:06:22;;;;;;;9.60;8.63;;;-0.90;99.90;;;;;;5030910;28;20313;-73
2023/02/09 02:08:55;;;;;;;10.80;9.80;;;-0.80;99.90;;;;;;5031938;28;20294;-73
2023/02/09 02:11:26;;;;;;;9.57;8.68;;;-0.80;99.90;;;;;;5029665;28;20322;-72
2023/02/09 02:13:53;;;;;;;9.63;8.73;;;-0.80;99.90;;;;;;5038004;28;20620;-73
2023/02/09 02:16:44;;;;;;;9.48;8.57;;;-0.80;99.90;;;;;;5033381;28;20305;-72
2023/02/09 02:19:36;;;;;;;10.05;8.90;;;-0.80;99.90;;;;;;5035893;28;20223;-73
2023/02/09 02:22:41;;;;;;;9.75;8.75;;;-0.80;99.90;;;;;;5033264;28;20743;-73
2023/02/09 02:25:41;;;;;;;11.40;10.27;;;-0.80;99.90;;;;;;5033981;28;20313;-72
2023/02/09 02:28:32;;;;;;;10.40;9.40;;;-0.80;99.90;;;;;;5031471;28;20735;-73
2023/02/09 02:31:33;;;;;;;11.63;9.82;;;-0.90;99.90;;;;;;5025349;28;20298;-73
2023/02/09 02:34:07;;;;;;;11.35;10.23;;;-0.90;99.90;;;;;;5001322;28;20234;-73
2023/02/09 02:36:44;;;;;;;10.85;9.77;;;-1.00;99.90;;;;;;5034573;28;20300;-73
2023/02/09 02:39:21;;;;;;;11.45;10.35;;;-1.00;99.90;;;;;;5031857;28;20714;-73
2023/02/09 02:44:46;;;;;;;9.73;8.82;;;-1.10;99.90;;;;;;5031128;28;20261;-73
2023/02/09 02:47:19;;;;;;;10.45;8.90;;;-1.20;99.90;;;;;;5032024;28;20220;-73
2023/02/09 02:49:52;;;;;;;10.35;9.27;;;-1.20;99.90;;;;;;5031959;28;20246;-73
2023/02/09 02:52:19;;;;;;;10.55;9.45;;;-1.20;99.90;;;;;;5028794;28;20231;-73
2023/02/09 02:54:51;;;;;;;10.88;9.88;;;-1.20;99.90;;;;;;5027924;28;20215;-73
2023/02/09 02:57:21;;;;;;;11.27;10.13;;;-1.20;99.90;;;;;;5032518;28;20454;-72
2023/02/09 02:59:53;;;;;;;11.23;10.13;;;-1.20;99.90;;;;;;5033155;28;20254;-73
2023/02/09 03:02:23;;;;;;;10.80;9.70;;;-1.20;99.90;;;;;;5036818;28;20286;-73
2023/02/09 03:04:55;;;;;;;9.95;8.95;;;-1.20;99.90;;;;;;5030043;28;20358;-74
2023/02/09 03:07:22;;;;;;;10.38;9.38;;;-1.20;99.90;;;;;;5032154;28;20242;-74
2023/02/09 03:09:50;;;;;;;10.65;9.65;;;-1.30;99.90;;;;;;4994175;28;20232;-74
2023/02/09 03:12:25;;;;;;;11.70;9.15;;;-1.30;99.90;;;;;;5022772;28;20285;-74
2023/02/09 03:15:08;;;;;;;10.68;9.65;;;-1.40;99.90;;;;;;5033057;28;20260;-72
2023/02/09 03:17:41;;;;;;;9.93;8.93;;;-1.40;99.90;;;;;;5036883;28;20282;-74
2023/02/09 03:20:19;;;;;;;10.68;9.57;;;-1.40;99.90;;;;;;5032317;28;20298;-74
2023/02/09 03:22:51;;;;;;;11.98;10.48;;;-1.40;99.90;;;;;;5028383;28;20283;-74
2023/02/09 03:25:22;;;;;;;11.35;10.25;;;-1.50;99.90;;;;;;5030041;28;20298;-74
2023/02/09 03:27:55;;;;;;;11.07;9.77;;;-1.40;99.90;;;;;;5031930;28;20708;-73
2023/02/09 03:30:23;;;;;;;11.10;10.00;;;-1.50;99.90;;;;;;5029779;28;20779;-73
2023/02/09 03:32:54;;;;;;;11.43;10.27;;;-1.60;99.90;;;;;;5028496;28;20208;-73
2023/02/09 03:35:25;;;;;;;12.60;11.35;;;-1.60;99.90;;;;;;5032140;28;20226;-73
2023/02/09 03:37:52;;;;;;;12.57;10.25;;;-1.70;99.90;;;;;;5032105;28;20299;-73
2023/02/09 03:40:20;;;;;;;10.43;9.43;;;-1.70;99.90;;;;;;5029850;28;20781;-72
2023/02/09 03:42:47;;;;;;;11.00;9.82;;;-1.70;99.90;;;;;;5030375;28;20282;-73
2023/02/09 03:45:14;;;;;;;11.77;10.57;;;-1.70;99.90;;;;;;5031135;28;20306;-71
2023/02/09 03:47:41;;;;;;;11.35;10.25;;;-1.60;99.90;;;;;;5032930;28;20275;-73
2023/02/09 03:50:08;;;;;;;12.52;10.82;;;-1.70;99.90;;;;;;5030641;28;20298;-73
2023/02/09 03:52:37;;;;;;;11.98;10.77;;;-1.70;99.90;;;;;;5031478;28;20226;-73
2023/02/09 03:55:04;;;;;;;10.43;9.38;;;-1.80;99.90;;;;;;5032361;28;20303;-73
2023/02/09 03:57:31;;;;;;;11.57;10.43;;;-1.80;99.90;;;;;;5032736;28;20261;-71
2023/02/09 04:00:00;;;;;;;10.55;9.55;;;-1.80;99.90;;;;;;5024422;28;20649;-71
2023/02/09 04:02:27;;;;;;;12.10;11.00;;;-1.80;99.90;;;;;;5032942;28;20195;-72
2023/02/09 04:04:54;;;;;;;10.90;9.82;;;-1.80;99.90;;;;;;5031648;28;20227;-72
2023/02/09 04:07:21;;;;;;;11.32;10.27;;;-1.80;99.90;;;;;;5029837;28;20306;-71
2023/02/09 04:09:50;;;;;;;10.80;9.55;;;-1.80;99.90;;;;;;5029491;28;20315;-71
2023/02/09 04:12:17;;;;;;;9.85;8.95;;;-1.80;99.90;;;;;;5029582;28;20223;-71
2023/02/09 04:14:44;;;;;;;10.88;9.88;;;-1.80;99.90;;;;;;5013179;28;20598;-71
2023/02/09 04:17:11;;;;;;;12.35;10.75;;;-1.90;99.90;;;;;;5034440;28;20287;-71
2023/02/09 04:19:38;;;;;;;13.15;10.88;;;-1.90;99.90;;;;;;5030818;28;20290;-71
2023/02/09 04:22:07;;;;;;;10.63;9.57;;;-1.90;99.90;;;;;;5036529;28;20299;-71
2023/02/09 04:24:34;;;;;;;11.80;10.60;;;-1.90;99.90;;;;;;5033571;28;20231;-71
2023/02/09 04:27:02;;;;;;;11.20;10.18;;;-2.00;99.90;;;;;;5033408;28;20234;-72
2023/02/09 04:29:29;;;;;;;11.23;10.10;;;-2.00;99.90;;;;;;5035139;28;20319;-72
2023/02/09 04:31:57;;;;;;;11.32;10.23;;;-2.00;99.90;;;;;;5038299;28;20282;-72
2023/02/09 04:34:24;;;;;;;10.27;9.23;;;-2.00;99.90;;;;;;5034584;28;20226;-71
2023/02/09 04:36:51;;;;;;;11.32;10.23;;;-2.00;99.90;;;;;;5035748;28;20286;-72
2023/02/09 04:39:18;;;;;;;10.45;9.45;;;-2.00;99.90;;;;;;5035569;28;20299;-71
2023/02/09 04:41:45;;;;;;;10.73;9.63;;;-2.10;99.90;;;;;;5037555;28;20284;-72
2023/02/09 04:44:14;;;;;;;10.93;9.82;;;-2.10;99.90;;;;;;5029599;28;20197;-72
2023/02/09 04:46:41;;;;;;;11.30;10.32;;;-2.10;99.90;;;;;;5030996;28;20290;-71
2023/02/09 04:49:08;;;;;;;12.57;11.27;;;-2.10;99.90;;;;;;5035838;28;20755;-71
2023/02/09 04:51:35;;;;;;;11.27;10.18;;;-2.10;99.90;;;;;;5032902;28;20298;-70
2023/02/09 04:54:02;;;;;;;12.60;11.30;;;-2.20;99.90;;;;;;5034734;28;20291;-71
2023/02/09 04:56:29;;;;;;;11.27;9.73;;;-2.20;99.90;;;;;;5028346;28;20306;-71
2023/02/09 05:01:53;;;;;;;10.50;9.43;;;-2.20;99.90;;;;;;4966045;28;20229;-70
2023/02/09 05:04:20;;;;;;;11.43;10.32;;;-2.30;99.90;;;;;;5019815;28;20303;-72
2023/02/09 05:06:47;;;;;;;10.82;9.73;;;-2.30;99.90;;;;;;5028816;28;20291;-71
2023/02/09 05:09:14;;;;;;;11.55;10.45;;;-2.30;99.90;;;;;;5030459;28;20302;-71
2023/02/09 05:11:41;;;;;;;11.20;10.00;;;-2.30;99.90;;;;;;5032249;28;20295;-71
2023/02/09 05:14:08;;;;;;;11.02;9.32;;;-2.30;99.90;;;;;;5029738;28;20282;-74
2023/02/09 05:16:35;;;;;;;11.00;10.00;;;-2.30;99.90;;;;;;5031393;28;20196;-72
2023/02/09 05:19:05;;;;;;;12.07;10.88;;;-2.30;99.90;;;;;;5030268;28;20341;-71
2023/02/09 05:21:32;;;;;;;11.18;10.05;;;-2.30;99.90;;;;;;5030916;28;20219;-71
2023/02/09 05:23:59;;;;;;;11.05;9.90;;;-2.40;99.90;;;;;;5030683;28;20283;-71
2023/02/09 05:26:26;;;;;;;9.82;8.93;;;-2.40;99.90;;;;;;5031972;28;20305;-72
2023/02/09 05:28:53;;;;;;;10.60;9.60;;;-2.50;99.90;;;;;;5029376;28;20673;-70
2023/02/09 05:31:19;;;;;;;11.57;10.48;;;-2.50;99.90;;;;;;5030685;28;20219;-71
2023/02/09 05:33:46;;;;;;;11.40;10.20;;;-2.50;99.90;;;;;;5035058;28;20287;-72
2023/02/09 05:36:15;;;;;;;9.65;8.75;;;-2.50;99.90;;;;;;5033594;28;20611;-71
2023/02/09 05:38:42;;;;;;;11.45;10.27;;;-2.50;99.90;;;;;;5033247;28;20223;-71
2023/02/09 05:42:13;;;;;;;11.65;10.45;;;-2.50;99.90;;;;;;5028404;28;20318;-72
2023/02/09 05:44:00;;;;;;;10.65;9.45;;;-2.60;99.90;;;;;;5030096;28;20256;-72
2023/02/09 05:46:27;;;;;;;9.80;8.80;;;-2.60;99.90;;;;;;5028739;28;20319;-72
2023/02/09 05:48:54;;;;;;;11.88;10.68;;;-2.60;99.90;;;;;;5032767;28;20298;-71
2023/02/09 05:51:22;;;;;;;11.32;10.23;;;-2.60;99.90;;;;;;5031941;28;20313;-71
2023/02/09 05:53:52;;;;;;;10.55;9.55;;;-2.60;99.90;;;;;;5035036;28;20282;-72
2023/02/09 05:56:19;;;;;;;11.20;10.10;;;-2.60;99.90;;;;;;5034552;28;20313;-71
2023/02/09 05:58:47;;;;;;;10.77;9.65;;;-2.70;99.90;;;;;;5027644;28;20238;-71
2023/02/09 06:01:14;;;;;;;11.18;10.02;;;-2.70;99.90;;;;;;5030556;28;20246;-71
2023/02/09 06:03:41;;;;;;;11.75;10.63;;;-2.70;99.90;;;;;;5032023;28;20312;-71
2023/02/09 06:06:08;;;;;;;10.77;9.80;;;-2.80;99.90;;;;;;5036384;28;20314;-71
2023/02/09 06:08:36;;;;;;;11.38;10.27;;;-2.70;99.90;;;;;;5029117;28;20926;-71
2023/02/09 06:11:04;;;;;;;11.82;10.65;;;-2.80;99.90;;;;;;5033546;28;20234;-71
2023/02/09 06:13:31;;;;;;;11.38;10.27;;;-2.80;99.90;;;;;;5029700;28;20847;-72
2023/02/09 06:15:58;;;;;;;11.82;10.63;;;-2.80;99.90;;;;;;5028349;28;20250;-72
2023/02/09 06:18:25;;;;;;;11.93;10.82;;;-2.90;99.90;;;;;;5033569;28;20224;-71
2023/02/09 06:20:53;;;;;;;11.45;10.10;;;-2.80;99.90;;;;;;5025274;28;20776;-71
2023/02/09 06:23:21;;;;;;;10.65;9.65;;;-2.80;99.90;;;;;;5035150;28;20629;-71
2023/02/09 06:25:51;;;;;;;11.00;9.90;;;-2.80;99.90;;;;;;5031511;28;20310;-72
2023/02/09 06:28:19;;;;;;;10.95;9.75;;;-2.80;99.90;;;;;;5030894;28;20210;-72
2023/02/09 06:30:49;;;;;;;11.52;10.43;;;-2.80;99.90;;;;;;5039002;28;20273;-71
2023/02/09 06:33:17;;;;;;;10.77;9.63;;;-2.80;99.90;;;;;;5035240;28;20645;-71
2023/02/09 06:35:44;;;;;;;12.02;10.82;;;-2.80;99.90;;;;;;5028165;28;20306;-70
2023/02/09 06:38:11;;;;;;;10.20;9.30;;;-2.70;99.90;;;;;;5031316;28;20274;-71
2023/02/09 06:40:38;;;;;;;11.25;10.13;;;-2.80;99.90;;;;;;5033679;28;20275;-71
2023/02/09 06:43:06;;;;;;;11.73;10.57;;;-2.80;99.90;;;;;;5035081;28;20223;-71
2023/02/09 06:45:33;;;;;;;10.25;8.60;;;-2.80;99.90;;;;;;5033954;28;20257;-72
2023/02/09 06:48:00;;;;;;;10.02;9.07;;;-2.80;99.90;;;;;;5032826;28;20614;-71
2023/02/09 06:50:27;;;;;;;10.65;9.55;;;-2.80;99.90;;;;;;5033672;28;20313;-71
2023/02/09 06:52:55;;;;;;;10.63;9.60;;;-2.70;99.90;;;;;;5029061;28;20281;-71
2023/02/09 06:55:22;;;;;;;9.80;8.90;;;-2.70;99.90;;;;;;5034499;28;20227;-71
2023/02/09 06:57:49;;;;;;;10.77;9.68;;;-2.70;99.90;;;;;;5030561;28;20664;-71
2023/02/09 07:00:19;;;;;;;14.02;11.27;;;-2.70;99.90;;;;;;5033650;28;20310;-71
2023/02/09 07:02:46;;;;;;;13.60;11.85;;;-2.60;99.90;;;;;;5031600;28;20640;-71
2023/02/09 07:05:15;;;;;;;12.80;11.30;;;-2.60;99.90;;;;;;5035999;28;20700;-71
2023/02/09 07:07:42;;;;;;;12.10;10.65;;;-2.60;99.90;;;;;;5029917;28;20247;-71
2023/02/09 07:10:11;;;;;;;15.70;13.77;;;-2.60;99.90;;;;;;5027971;28;20223;-71
2023/02/09 07:12:39;;;;;;;23.17;18.92;;;-2.60;99.90;;;;;;5029683;28;20225;-71
2023/02/09 07:15:07;;;;;;;24.77;17.83;;;-2.60;99.90;;;;;;5029202;28;20297;-71
2023/02/09 07:17:35;;;;;;;18.67;16.00;;;-2.70;99.90;;;;;;5031542;28;20282;-72
2023/02/09 07:20:04;;;;;;;16.17;14.55;;;-2.60;99.90;;;;;;5029849;28;20254;-71
2023/02/09 07:22:31;;;;;;;13.70;12.25;;;-2.60;99.90;;;;;;5034684;28;20206;-72
2023/02/09 07:24:58;;;;;;;13.13;11.73;;;-2.60;99.90;;;;;;5022968;28;20266;-72
2023/02/09 07:27:26;;;;;;;12.60;11.27;;;-2.60;99.90;;;;;;5030756;28;20277;-72
2023/02/09 07:29:53;;;;;;;13.82;11.02;;;-2.50;99.90;;;;;;5035674;28;20607;-72
2023/02/09 07:32:21;;;;;;;11.55;10.45;;;-2.50;99.90;;;;;;5031776;28;20245;-72
2023/02/09 07:34:50;;;;;;;12.00;10.70;;;-2.50;99.90;;;;;;5031315;28;20224;-72
2023/02/09 07:37:17;;;;;;;11.48;10.30;;;-1.80;99.90;;;;;;5031008;28;20204;-72
2023/02/09 07:39:44;;;;;;;10.20;9.30;;;-0.70;99.90;;;;;;5032635;28;20239;-72
2023/02/09 07:42:11;;;;;;;10.98;9.85;;;0.20;99.90;;;;;;5028892;28;20278;-72
2023/02/09 07:44:38;;;;;;;9.85;8.95;;;0.80;99.90;;;;;;5023751;28;20335;-72
2023/02/09 07:47:05;;;;;;;10.00;9.00;;;1.30;99.90;;;;;;5029687;28;20753;-72
2023/02/09 07:49:35;;;;;;;10.45;9.35;;;1.80;99.90;;;;;;5031471;28;20226;-72
2023/02/09 07:52:03;;;;;;;10.43;9.43;;;2.40;99.90;;;;;;5029598;28;20677;-72
2023/02/09 07:54:30;;;;;;;10.13;9.27;;;2.50;99.90;;;;;;5028721;28;20293;-72
2023/02/09 07:56:57;;;;;;;14.07;10.70;;;2.80;99.90;;;;;;5038787;28;20277;-72
2023/02/09 07:59:24;;;;;;;10.35;9.35;;;2.90;99.90;;;;;;5027812;28;20278;-72
2023/02/09 08:01:51;;;;;;;10.40;9.43;;;3.00;99.90;;;;;;5036680;28;20645;-71
2023/02/09 08:04:18;;;;;;;11.85;9.77;;;3.00;99.90;;;;;;5037840;28;20286;-72
2023/02/09 08:06:46;;;;;;;10.23;9.23;;;2.80;99.90;;;;;;5026619;28;20231;-72
2023/02/09 08:09:16;;;;;;;9.75;8.85;;;2.90;99.90;;;;;;5030882;28;20308;-72
2023/02/09 08:11:48;;;;;;;8.95;8.15;;;3.40;99.90;;;;;;5024054;28;20989;-72
2023/02/09 08:14:20;;;;;;;9.63;8.73;;;4.00;99.90;;;;;;5024520;28;20227;-72
2023/02/09 08:16:49;;;;;;;11.27;9.13;;;4.50;99.90;;;;;;5032030;28;20199;-73
2023/02/09 08:19:20;;;;;;;9.27;8.48;;;4.40;99.90;;;;;;5029486;28;20218;-72
2023/02/09 08:21:48;;;;;;;9.48;8.68;;;4.70;99.90;;;;;;5028280;28;20294;-72
2023/02/09 08:24:18;;;;;;;8.70;7.90;;;4.90;99.70;;;;;;5032801;28;20227;-73
2023/02/09 08:26:45;;;;;;;9.93;8.82;;;5.20;98.60;;;;;;5027871;28;20305;-71
2023/02/09 08:29:13;;;;;;;9.05;8.25;;;5.40;98.80;;;;;;5029813;28;20342;-73
2023/02/09 08:31:40;;;;;;;9.15;8.25;;;5.60;97.30;;;;;;5025757;28;20843;-73
2023/02/09 08:34:07;;;;;;;9.65;8.75;;;5.60;96.90;;;;;;5030966;28;20603;-72
2023/02/09 08:36:36;;;;;;;10.93;8.73;;;6.00;96.90;;;;;;5032285;28;20293;-73
2023/02/09 08:39:04;;;;;;;9.35;8.45;;;5.90;95.40;;;;;;5030672;28;20215;-71
2023/02/09 08:41:33;;;;;;;9.68;8.60;;;6.10;95.70;;;;;;5031083;28;20216;-73
2023/02/09 08:44:00;;;;;;;8.63;7.72;;;6.30;95.70;;;;;;5031738;28;20283;-72
2023/02/09 08:46:27;;;;;;;9.73;8.32;;;6.50;96.10;;;;;;5030057;28;20306;-72
2023/02/09 08:48:54;;;;;;;9.73;8.80;;;6.30;95.10;;;;;;5037805;28;20648;-72
2023/02/09 08:51:21;;;;;;;9.00;8.15;;;6.30;95.20;;;;;;5036790;28;20327;-72
2023/02/09 08:53:51;;;;;;;10.15;9.05;;;6.00;94.00;;;;;;5031900;28;20223;-72
2023/02/09 08:56:18;;;;;;;10.60;9.23;;;5.30;94.90;;;;;;5032022;28;20219;-72
2023/02/09 08:58:47;;;;;;;9.23;8.43;;;5.20;95.40;;;;;;5029405;28;20211;-74
2023/02/09 09:01:14;;;;;;;9.10;7.93;;;4.80;95.40;;;;;;5031028;28;20310;-72
2023/02/09 09:03:41;;;;;;;10.38;9.35;;;4.80;96.50;;;;;;5038005;28;20223;-73
2023/02/09 09:06:10;;;;;;;9.15;8.20;;;5.30;96.60;;;;;;5031381;28;20222;-72
2023/02/09 09:08:39;;;;;;;11.75;8.52;;;5.80;95.00;;;;;;5030184;28;20235;-73
2023/02/09 09:11:11;;;;;;;10.00;9.05;;;6.30;95.20;;;;;;5037180;28;20644;-72
2023/02/09 09:13:39;;;;;;;10.32;9.20;;;6.30;93.90;;;;;;5040367;28;20200;-72
2023/02/09 09:16:14;;;;;;;8.85;8.00;;;6.30;93.30;;;;;;5033549;28;20254;-72
2023/02/09 09:18:41;;;;;;;9.38;8.45;;;6.40;93.40;;;;;;5031342;28;20661;-72
2023/02/09 09:21:08;;;;;;;9.77;8.45;;;5.90;93.10;;;;;;5036450;28;20318;-72
2023/02/09 09:23:35;;;;;;;8.05;7.28;;;5.90;93.90;;;;;;5027002;28;20289;-74
2023/02/09 09:26:02;;;;;;;9.88;8.88;;;6.50;93.90;;;;;;5025447;28;20234;-73
2023/02/09 09:28:30;;;;;;;8.02;7.32;;;6.80;92.90;;;;;;5025911;28;20231;-74
2023/02/09 09:30:58;;;;;;;8.77;7.95;;;6.90;92.20;;;;;;5027616;28;20322;-73
2023/02/09 09:33:27;;;;;;;8.50;7.70;;;7.00;91.40;;;;;;5029798;28;20191;-72
2023/02/09 09:35:54;;;;;;;9.55;8.55;;;7.20;91.00;;;;;;5029864;28;20261;-73
2023/02/09 09:38:21;;;;;;;10.23;8.02;;;7.30;91.30;;;;;;5024660;28;20286;-74
2023/02/09 09:40:48;;;;;;;9.77;8.20;;;7.50;90.20;;;;;;5025293;28;20310;-74
2023/02/09 09:43:23;;;;;;;8.70;7.68;;;7.60;90.10;;;;;;5027463;28;20283;-74
2023/02/09 09:45:50;;;;;;;9.05;8.18;;;7.70;89.40;;;;;;5032805;28;20308;-72
2023/02/09 09:48:23;;;;;;;9.30;8.43;;;7.90;90.00;;;;;;5023413;28;20736;-72
2023/02/09 09:50:55;;;;;;;8.50;7.50;;;7.90;88.60;;;;;;5027697;28;20353;-73
2023/02/09 09:53:30;;;;;;;8.00;7.30;;;8.10;88.40;;;;;;5030040;28;20290;-73
2023/02/09 09:55:59;;;;;;;8.25;7.55;;;8.50;86.20;;;;;;5035400;28;20703;-73
2023/02/09 09:58:29;;;;;;;9.15;8.13;;;8.40;84.50;;;;;;5035086;28;20195;-73
2023/02/09 10:00:56;;;;;;;8.73;7.93;;;8.40;86.10;;;;;;5022364;28;20216;-72
2023/02/09 10:03:24;;;;;;;8.65;7.75;;;8.30;82.80;;;;;;5031715;28;20286;-73
2023/02/09 10:05:55;;;;;;;8.07;7.28;;;8.30;83.80;;;;;;5026442;28;20310;-73
2023/02/09 10:08:29;;;;;;;8.30;7.60;;;8.40;85.00;;;;;;5029493;28;20210;-73
2023/02/09 10:10:59;;;;;;;8.38;7.57;;;8.70;83.80;;;;;;5025680;28;20212;-72
2023/02/09 10:13:32;;;;;;;9.38;8.48;;;8.90;83.70;;;;;;5026232;28;20282;-73
2023/02/09 10:15:59;;;;;;;8.43;7.60;;;9.30;83.60;;;;;;5029458;28;20331;-72
2023/02/09 10:18:28;;;;;;;10.60;8.68;;;9.40;81.80;;;;;;5025653;28;20282;-73
2023/02/09 10:21:05;;;;;;;9.55;8.50;;;9.30;80.90;;;;;;5026849;28;20268;-73
2023/02/09 10:23:40;;;;;;;9.90;7.93;;;8.90;79.70;;;;;;5024036;28;20199;-72
2023/02/09 10:26:25;;;;;;;9.10;7.93;;;8.50;78.30;;;;;;5024956;28;20243;-72
2023/02/09 10:28:54;;;;;;;8.05;7.35;;;8.20;78.50;;;;;;5024361;28;20282;-73
2023/02/09 10:31:25;;;;;;;13.25;7.80;;;8.00;80.10;;;;;;5018007;28;20768;-74
2023/02/09 10:33:57;;;;;;;7.65;6.95;;;7.60;79.80;;;;;;5026165;28;20192;-72
2023/02/09 10:36:29;;;;;;;8.20;7.40;;;7.50;80.30;;;;;;5026022;28;20273;-73
2023/02/09 10:39:15;;;;;;;8.05;7.35;;;7.60;80.90;;;;;;5019132;28;20234;-73
2023/02/09 10:41:44;;;;;;;8.95;8.05;;;7.90;80.30;;;;;;5025774;28;20254;-75
2023/02/09 10:44:18;;;;;;;14.38;8.55;;;8.20;79.80;;;;;;5029656;28;20743;-73
2023/02/09 10:46:45;;;;;;;8.20;7.40;;;7.90;78.60;;;;;;5023281;28;20231;-72
2023/02/09 10:49:38;;;;;;;9.25;8.32;;;7.90;78.30;;;;;;5024965;28;20211;-72
2023/02/09 10:52:16;;;;;;;9.52;8.63;;;8.20;77.60;;;;;;5009374;28;20224;-73
2023/02/09 10:54:47;;;;;;;8.75;7.85;;;8.40;78.10;;;;;;5028838;28;20294;-73
2023/02/09 10:57:26;;;;;;;10.00;9.10;;;8.20;77.90;;;;;;5030833;28;20310;-73
2023/02/09 10:59:55;;;;;;;9.10;7.57;;;8.20;78.00;;;;;;5016780;28;20221;-74
2023/02/09 11:02:36;;;;;;;10.00;9.00;;;8.20;78.60;;;;;;5021629;28;20191;-74
2023/02/09 11:05:03;;;;;;;10.52;9.43;;;8.30;76.50;;;;;;5021112;28;20313;-75
2023/02/09 11:07:38;;;;;;;12.25;8.43;;;8.20;76.90;;;;;;5025784;28;20239;-74
2023/02/09 11:10:12;;;;;;;10.13;9.15;;;8.20;77.70;;;;;;5022899;28;20363;-74
2023/02/09 11:12:39;;;;;;;11.25;9.88;;;8.30;78.70;;;;;;5026543;28;20199;-74
2023/02/09 11:15:12;;;;;;;10.32;9.05;;;8.30;77.90;;;;;;5026674;28;20338;-74
2023/02/09 11:17:44;;;;;;;9.55;8.65;;;8.60;78.90;;;;;;5027821;28;20209;-74
2023/02/09 11:20:22;;;;;;;11.13;9.98;;;8.50;78.10;;;;;;5022922;28;20223;-72
2023/02/09 11:23:16;;;;;;;13.73;9.98;;;8.60;77.10;;;;;;5013936;28;20211;-74
2023/02/09 11:25:50;;;;;;;11.18;10.10;;;8.60;75.40;;;;;;5025445;28;20318;-73
2023/02/09 11:28:28;;;;;;;11.85;10.30;;;8.40;76.40;;;;;;5025402;28;20299;-73
2023/02/09 11:31:14;;;;;;;10.32;9.30;;;8.20;77.30;;;;;;5026889;28;20252;-72
2023/02/09 11:33:51;;;;;;;10.02;8.95;;;8.20;78.00;;;;;;5025035;28;20203;-74
2023/02/09 11:36:34;;;;;;;9.85;8.85;;;7.90;77.80;;;;;;5028928;28;20238;-73
2023/02/09 11:39:08;;;;;;;10.85;9.65;;;7.90;77.80;;;;;;5029481;28;20286;-73
2023/02/09 11:44:44;;;;;;;11.20;9.18;;;8.00;79.60;;;;;;4966986;28;20220;-72
2023/02/09 11:47:15;;;;;;;10.30;9.30;;;8.10;77.50;;;;;;4995836;28;20212;-72
2023/02/09 11:49:46;;;;;;;10.65;9.63;;;7.90;77.30;;;;;;5027639;28;20910;-72
2023/02/09 11:52:17;;;;;;;10.10;9.00;;;7.60;77.60;;;;;;5031248;28;20278;-72
2023/02/09 11:54:51;;;;;;;10.45;9.43;;;7.70;79.40;;;;;;5028468;28;20314;-72
2023/02/09 11:57:28;;;;;;;10.57;9.57;;;8.00;79.40;;;;;;5030246;28;20238;-72
2023/02/09 11:59:59;;;;;;;10.30;9.32;;;8.20;79.20;;;;;;5025369;28;20310;-72
2023/02/09 12:02:40;;;;;;;10.55;9.45;;;8.20;77.60;;;;;;5027892;28;20196;-72
2023/02/09 12:05:12;;;;;;;10.55;9.13;;;8.10;78.60;;;;;;5028107;28;20255;-73
2023/02/09 12:07:45;;;;;;;10.00;9.00;;;8.10;77.80;;;;;;5028723;28;20290;-73
2023/02/09 12:10:23;;;;;;;11.07;9.00;;;8.10;77.80;;;;;;5023789;28;20315;-73
2023/02/09 12:12:54;;;;;;;9.63;8.77;;;8.20;78.80;;;;;;5028394;28;20561;-73
2023/02/09 12:15:24;;;;;;;10.43;9.40;;;8.20;78.30;;;;;;5022393;28;20799;-72
2023/02/09 12:17:55;;;;;;;9.93;9.02;;;8.20;77.50;;;;;;5026575;28;20283;-71
2023/02/09 12:20:29;;;;;;;10.68;9.57;;;8.20;77.80;;;;;;5026388;28;20254;-73
2023/02/09 12:23:01;;;;;;;10.68;9.50;;;8.00;79.10;;;;;;5029303;28;20193;-72
2023/02/09 12:25:55;;;;;;;9.93;8.93;;;8.20;79.00;;;;;;5022230;28;20258;-72
2023/02/09 12:28:46;;;;;;;10.57;9.50;;;8.30;77.60;;;;;;4953430;28;20721;-71
2023/02/09 12:31:20;;;;;;;10.27;9.15;;;8.30;76.50;;;;;;5024251;28;20319;-73
2023/02/09 12:34:12;;;;;;;11.32;9.77;;;8.10;78.00;;;;;;5021925;28;20291;-71
2023/02/09 12:37:15;;;;;;;10.88;9.73;;;7.90;77.10;;;;;;5026442;28;20916;-72
2023/02/09 12:40:17;;;;;;;10.50;9.48;;;7.80;78.30;;;;;;5028309;28;20227;-73
2023/02/09 12:42:46;;;;;;;11.75;10.02;;;8.10;79.20;;;;;;5028177;28;20856;-73
2023/02/09 12:45:35;;;;;;;10.02;9.02;;;8.10;78.80;;;;;;5025353;28;20236;-72
2023/02/09 12:48:13;;;;;;;10.82;9.75;;;7.90;76.90;;;;;;5033143;28;20729;-74
2023/02/09 12:50:52;;;;;;;10.30;9.30;;;7.80;77.10;;;;;;5027979;28;20215;-75
2023/02/09 12:53:46;;;;;;;10.30;9.30;;;7.70;77.50;;;;;;5029258;28;20238;-74
2023/02/09 12:56:29;;;;;;;13.10;10.35;;;7.80;78.20;;;;;;5029606;28;20308;-74
2023/02/09 12:59:30;;;;;;;10.38;9.32;;;7.90;79.00;;;;;;5019073;28;20282;-74
2023/02/09 13:02:14;;;;;;;11.30;10.07;;;7.50;77.20;;;;;;5024854;28;20623;-75
2023/02/09 13:05:07;;;;;;;9.63;8.63;;;7.40;78.20;;;;;;5027328;28;20259;-75
2023/02/09 13:07:43;;;;;;;10.70;9.70;;;7.50;78.80;;;;;;5027306;28;20261;-73
2023/02/09 13:10:21;;;;;;;9.88;8.70;;;7.70;77.90;;;;;;5024335;28;20309;-75